SCCI/PUQ METAR and TAF weather

Enter ICAO airport designator
Station Type Date Time Source
SCCI METAR 2021/03/03 02:00 UTC NOAA

SCCI 030200Z AUTO 32009KT CAVOK 09/03 Q1019


Station Type Date Time Source
SCCI Decoded METAR 2021/03/03 02:00 UTC NOAA

Punta Arenas, Chile (SCCI) 53-00S 070-51W 33M
Mar 02, 2021 - 09:00 PM EST / 2021.03.03 0200 UTC
Wind: from the NW (320 degrees) at 10 MPH (9 KT):0
Visibility: greater than 7 mile(s):0
Temperature: 48 F (9 C)
Dew Point: 37 F (3 C)
Relative Humidity: 66%
Pressure (altimeter): 30.09 in. Hg (1019 hPa)
ob: SCCI 030200Z AUTO 32009KT CAVOK 09/03 Q1019
cycle: 2

Station Type Date Time Source
SCCI TAF 2021/03/03 00:00 UTC NOAA

TAF SCCI 022250Z 0300/0400 27007KT CAVOK TN06/0310Z TX17/0319Z
BECMG 0304/0306 31007KT
TEMPO 0307/0312 SCT045 PROB30
TEMPO 0308/0312 5000 BR SCT005
BECMG 0318/0320 FEW047

Example: see airport list